Copalis Beach, Washington
Current Conditions -  °F | °C
As of 4:16 PM on Thursday 27 Nov 2014 (Local Time) from KHQM Reporting Station
Light Rain Light Rain  
Wind Chill: 55°   Ceiling: 1200
Heat Index: 55°   Visibility: 3mi
Dew Point: 54°   Wind: 17mph
Humidity: 96%   Direction: 180°S
Pressure: 29.78"   Gusts: NA
Location:  47.11°N, 124.18°W
Report Text: KHQM 280016Z AUTO 18015KT 3SM -RA BR BKN012 OVC019 13/12 A2978 RMK AO2 P0001 T01280122
Loading
Personal Weather Stations






























Interactive Weather Map New forecast layout! Learn more

10-Day Weather Forecast

Advertisements
Track Severe Weather on mobile